createdAt,value
2019-03-20T00:01:43.944Z,74.70
2019-03-20T00:04:12.896Z,75.00
2019-03-20T00:06:42.496Z,74.50
2019-03-20T00:09:12.155Z,74.70
2019-03-20T00:11:41.777Z,74.00
2019-03-20T00:14:11.500Z,73.40
2019-03-20T00:16:41.469Z,73.70
2019-03-20T00:19:11.156Z,74.20
2019-03-20T00:21:41.851Z,74.90
2019-03-20T00:24:11.462Z,75.10
2019-03-20T00:26:41.325Z,75.30
2019-03-20T00:29:11.142Z,75.20
2019-03-20T00:31:40.774Z,75.40
2019-03-20T00:34:11.446Z,75.30
2019-03-20T00:36:41.135Z,76.40
2019-03-20T00:39:10.815Z,76.40
2019-03-20T00:41:40.507Z,75.50
2019-03-20T00:44:10.125Z,75.80
2019-03-20T00:46:39.779Z,76.00
2019-03-20T00:49:09.406Z,75.90
2019-03-20T00:51:39.284Z,74.80
2019-03-20T00:54:09.138Z,75.60
2019-03-20T00:56:38.916Z,75.10
2019-03-20T00:59:08.506Z,75.70
2019-03-20T01:01:38.110Z,75.40
2019-03-20T01:04:07.668Z,75.80
2019-03-20T01:06:37.273Z,76.30
2019-03-20T01:09:07.908Z,76.30
2019-03-20T01:11:37.521Z,75.90
2019-03-20T01:14:07.023Z,75.60
2019-03-20T01:16:36.549Z,75.70
2019-03-20T01:19:06.651Z,76.10
2019-03-20T01:21:36.270Z,77.10
2019-03-20T01:26:40.921Z,78.60
2019-03-20T01:29:10.565Z,79.20
2019-03-20T01:31:40.096Z,79.10
2019-03-20T01:34:09.689Z,78.90
2019-03-20T01:36:39.223Z,79.50
2019-03-20T01:39:08.789Z,78.90
2019-03-20T01:41:38.504Z,79.00
2019-03-20T01:44:08.185Z,78.60
2019-03-20T01:46:37.823Z,78.60
2019-03-20T01:49:07.475Z,78.30
2019-03-20T01:51:37.070Z,78.50
2019-03-20T01:54:06.611Z,78.50
2019-03-20T01:56:36.228Z,78.60
2019-03-20T01:59:05.796Z,78.10
2019-03-20T02:01:35.471Z,78.40
2019-03-20T02:04:05.643Z,78.20
2019-03-20T02:06:35.331Z,78.70
2019-03-20T02:09:07.034Z,78.40
2019-03-20T02:11:36.640Z,78.50
2019-03-20T02:14:06.754Z,78.70
2019-03-20T02:16:36.359Z,79.30
2019-03-20T02:19:06.573Z,79.90
2019-03-20T02:21:36.151Z,80.40
2019-03-20T02:24:05.884Z,80.60
2019-03-20T02:26:35.499Z,81.10
2019-03-20T02:29:05.146Z,81.40
2019-03-20T02:31:34.693Z,81.30
2019-03-20T02:34:04.465Z,81.30
2019-03-20T02:36:34.006Z,81.40
2019-03-20T02:39:05.828Z,81.90
2019-03-20T02:41:35.419Z,81.80
2019-03-20T02:44:05.081Z,81.90
2019-03-20T02:46:34.704Z,81.50
2019-03-20T02:49:04.395Z,81.40
2019-03-20T02:51:33.946Z,81.60
2019-03-20T02:54:04.299Z,81.50
2019-03-20T02:56:33.930Z,81.30
2019-03-20T02:59:05.043Z,81.60
2019-03-20T03:01:34.827Z,81.40
2019-03-20T03:04:04.777Z,81.60
2019-03-20T03:06:34.328Z,82.00
2019-03-20T03:09:07.111Z,82.20
2019-03-20T03:11:36.835Z,82.20
2019-03-20T03:14:06.848Z,82.10
2019-03-20T03:16:36.697Z,81.70
2019-03-20T03:19:06.622Z,81.80
2019-03-20T03:21:36.184Z,82.30
2019-03-20T03:24:05.997Z,82.20
2019-03-20T03:26:35.620Z,82.20
2019-03-20T03:29:05.440Z,82.30
2019-03-20T03:31:34.979Z,82.10
2019-03-20T03:34:05.305Z,82.30
2019-03-20T03:36:34.875Z,82.20
2019-03-20T03:39:06.008Z,82.00
2019-03-20T03:41:35.601Z,81.90
2019-03-20T03:44:05.715Z,82.10
2019-03-20T03:46:35.333Z,82.90
2019-03-20T03:49:05.047Z,83.70
2019-03-20T03:51:34.521Z,84.10
2019-03-20T03:54:04.215Z,84.30
2019-03-20T03:56:33.850Z,84.30
2019-03-20T03:59:03.402Z,84.30
2019-03-20T04:01:33.048Z,84.80
2019-03-20T04:04:03.021Z,84.90
2019-03-20T04:06:35.832Z,84.80
2019-03-20T04:09:06.324Z,85.10
2019-03-20T04:11:35.932Z,85.40
2019-03-20T04:14:05.563Z,85.70
2019-03-20T04:16:35.104Z,86.30
2019-03-20T04:19:04.650Z,86.00
2019-03-20T04:21:34.251Z,86.50
2019-03-20T04:24:04.890Z,86.80
2019-03-20T04:26:34.591Z,87.40
2019-03-20T04:29:05.768Z,87.10
2019-03-20T04:31:35.327Z,87.10
2019-03-20T04:34:04.969Z,87.10
2019-03-20T04:36:34.512Z,87.60
2019-03-20T04:39:07.837Z,88.50
2019-03-20T04:41:37.415Z,88.10
2019-03-20T04:44:07.609Z,88.60
2019-03-20T04:46:37.198Z,89.10
2019-03-20T04:49:07.063Z,89.30
2019-03-20T04:51:36.602Z,89.10
2019-03-20T04:54:06.413Z,89.20
2019-03-20T04:56:36.065Z,89.40
2019-03-20T04:59:05.900Z,89.80
2019-03-20T05:01:35.577Z,89.50
2019-03-20T05:04:05.347Z,89.50
2019-03-20T05:06:35.039Z,89.80
2019-03-20T05:09:06.399Z,89.80
2019-03-20T05:11:36.085Z,90.00
2019-03-20T05:14:06.102Z,90.00
2019-03-20T05:16:35.680Z,90.10
2019-03-20T05:19:05.903Z,90.20
2019-03-20T05:21:35.871Z,90.30
2019-03-20T05:24:06.258Z,90.30
2019-03-20T05:26:35.907Z,90.10
2019-03-20T05:29:06.290Z,90.20
2019-03-20T05:31:36.386Z,90.30
2019-03-20T05:34:06.614Z,90.20
2019-03-20T05:36:36.560Z,90.30
2019-03-20T05:39:08.559Z,90.40
2019-03-20T05:41:38.244Z,90.30
2019-03-20T05:44:08.387Z,90.30
2019-03-20T05:46:38.019Z,90.30
2019-03-20T05:49:08.516Z,90.30
2019-03-20T05:51:38.210Z,90.10
2019-03-20T05:54:07.815Z,89.90
2019-03-20T05:56:37.378Z,89.70
2019-03-20T05:59:07.539Z,89.30
2019-03-20T06:01:37.146Z,89.20
2019-03-20T06:04:09.425Z,89.30
2019-03-20T06:06:39.021Z,89.10
2019-03-20T06:09:09.888Z,88.70
2019-03-20T06:11:39.899Z,88.50
2019-03-20T06:14:10.134Z,87.50
2019-03-20T06:16:39.780Z,85.50
2019-03-20T06:19:10.154Z,84.70
2019-03-20T06:21:39.738Z,83.00
2019-03-20T06:24:09.401Z,81.40
2019-03-20T06:26:39.065Z,80.20
2019-03-20T06:29:09.099Z,78.80
2019-03-20T06:31:38.812Z,78.00
2019-03-20T06:34:09.943Z,77.50
2019-03-20T06:36:39.743Z,75.90
2019-03-20T06:39:10.234Z,75.20
2019-03-20T06:41:40.695Z,74.70
2019-03-20T06:44:10.519Z,73.50
2019-03-20T06:46:40.304Z,72.40
2019-03-20T06:49:10.000Z,71.50
2019-03-20T06:51:42.959Z,70.10
2019-03-20T06:54:13.709Z,70.10
2019-03-20T06:56:43.503Z,70.40
2019-03-20T06:59:49.496Z,69.30
2019-03-20T07:02:21.100Z,67.70
2019-03-20T07:05:10.423Z,67.50
2019-03-20T07:07:44.451Z,66.00
2019-03-20T07:10:22.473Z,66.40
2019-03-20T07:12:52.849Z,64.90
2019-03-20T07:15:22.818Z,63.70
2019-03-20T07:17:52.671Z,62.80
2019-03-20T07:20:22.612Z,62.40
2019-03-20T07:22:52.506Z,62.30
2019-03-20T07:25:22.024Z,61.50
2019-03-20T07:27:51.795Z,60.20
2019-03-20T07:30:21.591Z,59.00
2019-03-20T07:32:51.345Z,57.60
2019-03-20T07:35:21.175Z,54.40
2019-03-20T07:37:55.826Z,52.50
2019-03-20T07:40:24.209Z,49.80
2019-03-20T07:42:53.846Z,49.80
2019-03-20T07:45:23.660Z,49.80
2019-03-20T07:47:53.446Z,48.40
2019-03-20T07:50:23.058Z,46.30
2019-03-20T07:52:52.728Z,43.70
2019-03-20T07:55:22.733Z,42.10
2019-03-20T07:57:52.411Z,41.80
2019-03-20T08:00:22.174Z,39.90
2019-03-20T08:02:51.869Z,39.10
2019-03-20T08:05:29.252Z,37.00
2019-03-20T08:07:52.788Z,36.70
2019-03-20T08:10:22.775Z,31.10
2019-03-20T08:12:52.309Z,31.10
2019-03-20T08:15:22.018Z,28.80
2019-03-20T08:17:51.567Z,31.10
2019-03-20T08:20:21.421Z,32.80
2019-03-20T08:22:51.191Z,33.30
2019-03-20T08:25:21.240Z,31.70
2019-03-20T08:27:50.794Z,30.60
2019-03-20T08:30:21.073Z,30.70
2019-03-20T08:32:50.685Z,30.80
2019-03-20T08:35:22.404Z,31.80
2019-03-20T08:37:51.940Z,29.80
2019-03-20T08:40:24.843Z,31.40
2019-03-20T08:45:42.355Z,30.40
2019-03-20T08:48:31.023Z,30.30
2019-03-20T08:51:00.660Z,28.70
2019-03-20T08:53:31.773Z,30.00
2019-03-20T08:56:02.514Z,30.00
2019-03-20T08:58:32.941Z,30.50
2019-03-20T09:01:02.881Z,28.60
2019-03-20T09:03:33.752Z,29.60
2019-03-20T09:06:03.480Z,29.00
2019-03-20T09:08:33.870Z,28.30
2019-03-20T09:11:03.836Z,28.40
2019-03-20T09:13:33.512Z,28.70
2019-03-20T09:16:03.570Z,27.60
2019-03-20T09:18:34.017Z,27.00
2019-03-20T09:21:04.175Z,26.50
2019-03-20T09:23:40.733Z,25.70
2019-03-20T09:26:10.468Z,25.20
2019-03-20T09:28:40.791Z,25.10
2019-03-20T09:31:10.559Z,25.90
2019-03-20T09:33:40.621Z,27.50
2019-03-20T09:36:10.531Z,26.70
2019-03-20T09:38:43.663Z,26.50
2019-03-20T09:41:11.852Z,25.10
2019-03-20T09:43:42.324Z,26.30
2019-03-20T09:46:12.299Z,26.80
2019-03-20T09:48:42.734Z,27.00
2019-03-20T09:51:12.399Z,27.40
2019-03-20T09:53:42.916Z,25.90
2019-03-20T09:56:12.856Z,26.20
2019-03-20T09:58:42.630Z,26.00
2019-03-20T10:01:12.625Z,24.20
2019-03-20T10:03:42.455Z,24.30
2019-03-20T10:06:12.179Z,24.60
2019-03-20T10:08:42.133Z,25.00
2019-03-20T10:11:12.046Z,24.40
2019-03-20T10:13:42.521Z,24.80
2019-03-20T10:16:12.386Z,25.20
2019-03-20T10:18:42.142Z,25.00
2019-03-20T10:23:59.544Z,24.20
2019-03-20T10:26:29.306Z,23.60
2019-03-20T10:28:59.064Z,23.90
2019-03-20T10:31:28.781Z,23.80
2019-03-20T10:33:58.629Z,24.30
2019-03-20T10:36:28.606Z,24.20
2019-03-20T10:39:06.403Z,23.30
2019-03-20T10:41:30.098Z,22.10
2019-03-20T10:44:00.015Z,22.80
2019-03-20T10:46:29.959Z,21.60
2019-03-20T10:48:59.867Z,21.40
2019-03-20T10:51:29.752Z,21.00
2019-03-20T10:53:59.686Z,21.30
2019-03-20T10:56:29.507Z,20.40
2019-03-20T10:58:59.256Z,20.20
2019-03-20T11:01:29.354Z,19.30
2019-03-20T11:03:59.508Z,20.10
2019-03-20T11:06:29.563Z,19.50
2019-03-20T11:08:59.453Z,20.40
2019-03-20T11:11:29.861Z,21.30
2019-03-20T11:14:00.198Z,22.90
2019-03-20T11:16:29.898Z,22.90
2019-03-20T11:19:01.496Z,22.30
2019-03-20T11:21:31.543Z,21.00
2019-03-20T11:24:01.462Z,21.20
2019-03-20T11:26:31.328Z,20.90
2019-03-20T11:29:01.281Z,21.70
2019-03-20T11:31:31.715Z,22.70
2019-03-20T11:34:01.782Z,24.40
2019-03-20T11:36:31.855Z,25.50
2019-03-20T11:39:02.138Z,26.10
2019-03-20T11:41:33.038Z,26.80
2019-03-20T11:44:03.618Z,27.50
2019-03-20T11:46:33.498Z,28.00
2019-03-20T11:49:03.447Z,27.80
2019-03-20T11:51:34.088Z,28.20
2019-03-20T11:54:04.042Z,28.70
2019-03-20T11:56:33.859Z,29.30
2019-03-20T11:59:03.773Z,29.50
2019-03-20T12:01:33.966Z,28.80
2019-03-20T12:04:03.869Z,29.00
2019-03-20T12:06:33.826Z,28.60
2019-03-20T12:09:07.071Z,29.10
2019-03-20T12:11:45.476Z,29.40
2019-03-20T12:14:08.535Z,29.50
2019-03-20T12:16:38.397Z,29.90
2019-03-20T12:19:08.145Z,30.90
2019-03-20T12:21:38.001Z,30.70
2019-03-20T12:24:08.090Z,30.40
2019-03-20T12:26:38.052Z,31.10
2019-03-20T12:29:08.129Z,31.30
2019-03-20T12:31:38.205Z,30.80
2019-03-20T12:34:08.230Z,30.40
2019-03-20T12:36:38.027Z,31.10
2019-03-20T12:41:29.865Z,31.10
2019-03-20T12:44:00.329Z,31.70
2019-03-20T12:46:40.876Z,32.30
2019-03-20T12:49:05.033Z,31.90
2019-03-20T12:51:35.020Z,31.70
2019-03-20T12:54:05.216Z,32.10
2019-03-20T12:56:35.193Z,32.00
2019-03-20T12:59:05.813Z,32.40
2019-03-20T13:01:35.887Z,32.70
2019-03-20T13:04:06.143Z,33.50
2019-03-20T13:06:35.983Z,33.10
2019-03-20T13:09:08.863Z,32.90
2019-03-20T13:11:38.706Z,33.00
2019-03-20T13:14:09.618Z,33.00
2019-03-20T13:16:39.446Z,33.40
2019-03-20T13:19:09.863Z,33.60
2019-03-20T13:21:39.689Z,33.50
2019-03-20T13:24:09.856Z,34.40
2019-03-20T13:26:39.806Z,35.40
2019-03-20T13:29:10.307Z,35.50
2019-03-20T13:31:40.261Z,33.30
2019-03-20T13:34:10.334Z,34.70
2019-03-20T13:36:40.218Z,34.10
2019-03-20T13:39:10.505Z,34.60
2019-03-20T13:41:40.630Z,34.70
2019-03-20T13:44:10.950Z,35.50
2019-03-20T13:46:40.965Z,35.20
2019-03-20T13:49:11.327Z,35.90
2019-03-20T13:51:41.345Z,35.80
2019-03-20T13:54:11.445Z,36.50
2019-03-20T13:56:42.450Z,35.50
2019-03-20T13:59:13.850Z,36.00
2019-03-20T14:01:44.072Z,36.30
2019-03-20T14:04:14.774Z,35.90
2019-03-20T14:06:44.614Z,35.70
2019-03-20T14:09:14.545Z,35.60
2019-03-20T14:11:44.526Z,36.20
2019-03-20T14:14:14.425Z,36.30
2019-03-20T14:16:44.698Z,36.50
2019-03-20T14:19:15.019Z,36.20
2019-03-20T14:21:45.099Z,36.50
2019-03-20T14:24:15.638Z,36.50
2019-03-20T14:26:47.845Z,36.60
2019-03-20T14:29:18.019Z,36.90
2019-03-20T14:31:48.246Z,37.00
2019-03-20T14:34:18.718Z,37.40
2019-03-20T14:36:48.797Z,36.90
2019-03-20T14:39:19.848Z,37.30
2019-03-20T14:41:49.434Z,37.30
2019-03-20T14:44:19.266Z,37.90
2019-03-20T14:46:49.021Z,38.10
2019-03-20T14:49:18.915Z,37.60
2019-03-20T14:51:48.557Z,37.00
2019-03-20T14:54:18.465Z,37.40
2019-03-20T14:56:50.165Z,37.10
2019-03-20T14:59:19.981Z,37.40
2019-03-20T15:01:49.726Z,37.40
2019-03-20T15:04:19.648Z,38.10
2019-03-20T15:06:49.195Z,38.30
2019-03-20T15:09:18.912Z,37.70
2019-03-20T15:11:48.610Z,38.60
2019-03-20T15:14:18.294Z,37.90
2019-03-20T15:16:47.866Z,38.10
2019-03-20T15:19:17.812Z,37.80
2019-03-20T15:21:47.447Z,37.70
2019-03-20T15:24:17.112Z,38.20
2019-03-20T15:26:46.750Z,38.20
2019-03-20T15:32:33.049Z,38.60
2019-03-20T15:35:05.860Z,38.80
2019-03-20T15:37:36.585Z,38.80
2019-03-20T15:40:11.575Z,38.60
2019-03-20T15:43:01.144Z,38.80
2019-03-20T15:45:51.290Z,39.00
2019-03-20T15:48:33.055Z,39.50
2019-03-20T15:51:05.709Z,38.70
2019-03-20T15:56:49.932Z,39.30
2019-03-20T15:59:41.680Z,38.80
2019-03-20T16:03:11.187Z,39.20
2019-03-20T16:05:41.418Z,39.10
2019-03-20T16:08:11.467Z,39.90
2019-03-20T16:10:41.892Z,40.20
2019-03-20T16:13:12.636Z,39.70
2019-03-20T16:15:42.425Z,39.80
2019-03-20T16:18:12.299Z,40.40
2019-03-20T16:20:42.488Z,39.90
2019-03-20T16:23:12.386Z,39.80
2019-03-20T16:25:42.267Z,40.20
2019-03-20T16:28:12.731Z,39.40
2019-03-20T16:30:42.964Z,39.90
2019-03-20T16:33:13.083Z,40.30
2019-03-20T16:35:43.384Z,40.40
2019-03-20T16:38:14.374Z,40.80
2019-03-20T16:40:45.654Z,41.60
2019-03-20T16:43:15.678Z,40.70
2019-03-20T16:45:46.605Z,41.00
2019-03-20T16:48:16.351Z,41.20
2019-03-20T16:50:46.419Z,41.80
2019-03-20T16:53:16.405Z,42.00
2019-03-20T16:55:46.409Z,41.20
2019-03-20T16:58:16.647Z,40.70
2019-03-20T17:00:46.502Z,41.80
2019-03-20T17:03:16.935Z,41.30
2019-03-20T17:05:46.922Z,40.90
2019-03-20T17:08:17.942Z,41.80
2019-03-20T17:10:49.786Z,41.50
2019-03-20T17:13:30.963Z,41.60
2019-03-20T17:16:07.031Z,41.40
2019-03-20T17:18:40.932Z,41.40
2019-03-20T17:21:15.191Z,41.20
2019-03-20T17:23:48.549Z,41.50
2019-03-20T17:26:22.351Z,41.70
2019-03-20T17:28:53.295Z,41.70
2019-03-20T17:31:28.838Z,42.20
2019-03-20T17:34:03.868Z,42.00
2019-03-20T17:36:39.828Z,41.80
2019-03-20T17:39:16.271Z,41.90
2019-03-20T17:41:52.700Z,41.80
2019-03-20T17:44:30.483Z,41.90
2019-03-20T17:47:03.877Z,42.40
2019-03-20T17:49:37.676Z,42.40
2019-03-20T17:52:12.947Z,42.10
2019-03-20T17:54:48.045Z,42.50
2019-03-20T17:57:21.857Z,42.70
2019-03-20T17:59:56.478Z,42.90
2019-03-20T18:02:33.201Z,42.70
2019-03-20T18:05:09.435Z,43.10
2019-03-20T18:07:43.634Z,43.20
2019-03-20T18:10:19.887Z,43.50
2019-03-20T18:12:54.835Z,43.70
2019-03-20T18:15:32.882Z,44.00
2019-03-20T18:18:02.219Z,44.10
2019-03-20T18:20:33.154Z,44.30
2019-03-20T18:23:07.124Z,44.70
2019-03-20T18:25:38.630Z,44.60
2019-03-20T18:28:10.271Z,44.80
2019-03-20T18:30:43.665Z,44.90
2019-03-20T18:33:18.455Z,44.60
2019-03-20T18:35:48.524Z,45.20
2019-03-20T18:38:21.877Z,45.20
2019-03-20T18:40:54.896Z,45.50
2019-03-20T18:43:25.736Z,45.40
2019-03-20T18:45:58.441Z,45.50
2019-03-20T18:48:30.431Z,45.60
2019-03-20T18:51:00.618Z,45.90
2019-03-20T18:53:30.464Z,45.50
2019-03-20T18:56:00.335Z,45.90
2019-03-20T18:58:30.535Z,45.50
2019-03-20T19:01:03.420Z,45.70
2019-03-20T19:03:37.141Z,46.10
2019-03-20T19:06:14.627Z,45.50
2019-03-20T19:08:51.579Z,45.60
2019-03-20T19:11:22.380Z,46.00
2019-03-20T19:14:00.622Z,46.50
2019-03-20T19:16:30.854Z,45.90
2019-03-20T19:19:01.603Z,45.60
2019-03-20T19:21:31.530Z,46.30
2019-03-20T19:24:02.202Z,46.30
2019-03-20T19:26:32.265Z,45.90
2019-03-20T19:29:02.374Z,45.90
2019-03-20T19:34:14.692Z,45.60
2019-03-20T19:36:48.187Z,46.00
2019-03-20T19:39:18.132Z,45.60
2019-03-20T19:41:49.144Z,45.90
2019-03-20T19:44:18.963Z,46.30
2019-03-20T19:46:48.741Z,46.50
2019-03-20T19:49:18.402Z,46.00
2019-03-20T19:51:48.578Z,46.40
2019-03-20T19:54:18.358Z,46.20
2019-03-20T19:56:48.375Z,46.00
2019-03-20T19:59:19.146Z,46.10
2019-03-20T20:01:48.751Z,46.20
2019-03-20T20:04:18.507Z,45.80
2019-03-20T20:06:48.367Z,46.10
2019-03-20T20:09:18.329Z,46.00
2019-03-20T20:11:49.073Z,46.10
2019-03-20T20:14:19.152Z,46.10
2019-03-20T20:16:49.103Z,46.30
2019-03-20T20:19:18.738Z,46.10
2019-03-20T20:21:48.371Z,46.30
2019-03-20T20:24:19.612Z,46.50
2019-03-20T20:26:49.153Z,46.10
2019-03-20T20:31:53.622Z,46.40
2019-03-20T20:34:23.391Z,46.60
2019-03-20T20:36:53.036Z,46.70
2019-03-20T20:39:23.613Z,47.20
2019-03-20T20:41:53.100Z,47.70
2019-03-20T20:44:22.743Z,46.80
2019-03-20T20:46:52.324Z,46.50
2019-03-20T20:49:21.966Z,46.90
2019-03-20T20:51:51.607Z,47.00
2019-03-20T20:54:21.371Z,47.40
2019-03-20T20:56:50.952Z,47.60
2019-03-20T20:59:20.724Z,47.80
2019-03-20T21:01:50.422Z,47.90
2019-03-20T21:04:20.408Z,48.20
2019-03-20T21:06:50.208Z,47.90
2019-03-20T21:09:20.476Z,48.50
2019-03-20T21:11:52.098Z,48.50
2019-03-20T21:14:21.695Z,48.20
2019-03-20T21:16:51.919Z,48.60
2019-03-20T21:19:32.739Z,49.00
2019-03-20T21:22:43.822Z,48.80
2019-03-20T21:25:15.239Z,48.80
2019-03-20T21:28:31.353Z,48.90
2019-03-20T21:31:50.729Z,49.20
2019-03-20T21:35:06.462Z,48.90
2019-03-20T21:38:06.915Z,48.90
2019-03-20T21:40:57.165Z,48.80
2019-03-20T21:44:07.223Z,49.60
2019-03-20T21:47:07.922Z,49.30
2019-03-20T21:49:38.185Z,49.80
2019-03-20T21:52:08.916Z,49.90
2019-03-20T21:55:28.906Z,50.30
2019-03-20T21:58:05.501Z,50.30
2019-03-20T22:01:09.647Z,50.30
2019-03-20T22:03:40.100Z,49.90
2019-03-20T22:06:46.820Z,50.80
2019-03-20T22:09:32.776Z,50.50
2019-03-20T22:12:26.592Z,51.50
2019-03-20T22:15:02.206Z,51.20
2019-03-20T22:18:19.239Z,51.50
2019-03-20T22:21:19.755Z,50.70
2019-03-20T22:24:19.644Z,51.90
2019-03-20T22:27:32.935Z,51.70
2019-03-20T22:30:06.342Z,52.10
2019-03-20T22:33:15.534Z,52.10
2019-03-20T22:36:18.193Z,52.40
2019-03-20T22:39:37.631Z,53.20
2019-03-20T22:42:15.447Z,52.80
2019-03-20T22:45:09.248Z,53.20
2019-03-20T22:48:30.878Z,53.90
2019-03-20T22:51:31.719Z,54.10
2019-03-20T22:54:43.763Z,54.40
2019-03-20T22:57:39.262Z,54.50
2019-03-20T23:00:10.416Z,54.90
2019-03-20T23:02:55.279Z,54.80
2019-03-20T23:05:25.778Z,55.10
2019-03-20T23:07:55.926Z,55.40
2019-03-20T23:10:26.197Z,55.50
2019-03-20T23:12:56.423Z,55.90
2019-03-20T23:15:26.657Z,55.20
2019-03-20T23:17:56.972Z,55.00
2019-03-20T23:20:27.414Z,55.70
2019-03-20T23:22:57.587Z,55.60
2019-03-20T23:25:27.803Z,55.20
2019-03-20T23:27:58.059Z,55.90
2019-03-20T23:30:28.450Z,56.00
2019-03-20T23:32:58.809Z,55.50
2019-03-20T23:35:29.096Z,55.80
2019-03-20T23:37:59.319Z,56.80
2019-03-20T23:40:29.933Z,57.10
2019-03-20T23:43:00.783Z,56.60
2019-03-20T23:45:31.551Z,56.50
2019-03-20T23:48:33.947Z,55.60
2019-03-20T23:51:09.912Z,55.90
2019-03-20T23:53:43.692Z,56.70
2019-03-20T23:58:56.587Z,56.50
